Time;durP1;ratioP1;P1;durP2;ratioP2;P2;SDS_P1;SDS_P2;PMS_P1;PMS_P2;Temp;Humidity;BMP_temperature;BMP_pressure;BME280_temperature;BME280_humidity;BME280_pressure;Samples;Min_cycle;Max_cycle;Signal;HPM_P1;HPM_P2
2022/01/18 00:02:08;;;;;;;21.00;3.22;;;7.90;99.90;;;;;;6165559;23;20030;-87
2022/01/18 00:04:35;;;;;;;22.70;4.23;;;7.90;99.90;;;;;;6163745;23;20075;-87
2022/01/18 00:07:01;;;;;;;22.07;3.53;;;7.90;99.90;;;;;;6213511;23;20087;-87
2022/01/18 00:09:27;;;;;;;25.23;3.83;;;7.90;99.90;;;;;;6163277;23;20032;-87
2022/01/18 00:12:13;;;;;;;20.40;3.20;;;7.90;99.90;;;;;;6188299;23;20443;-87
2022/01/18 00:14:44;;;;;;;23.40;3.83;;;7.90;99.90;;;;;;6164570;23;20092;-86
2022/01/18 00:17:29;;;;;;;25.57;4.70;;;7.80;99.90;;;;;;6164912;23;20008;-87
2022/01/18 00:19:56;;;;;;;26.37;4.30;;;7.90;99.90;;;;;;6190379;23;20032;-87
2022/01/18 00:22:25;;;;;;;23.80;3.87;;;7.90;99.90;;;;;;6165595;23;20012;-87
2022/01/18 00:24:52;;;;;;;23.90;3.85;;;7.90;99.90;;;;;;6189720;23;20442;-87
2022/01/18 00:27:19;;;;;;;28.87;5.77;;;8.00;99.90;;;;;;6188620;23;20055;-86
2022/01/18 00:30:14;;;;;;;23.30;4.17;;;7.90;99.90;;;;;;6188083;23;20009;-87
2022/01/18 00:32:55;;;;;;;27.40;5.17;;;8.00;99.90;;;;;;6194003;23;20339;-87
2022/01/18 00:35:20;;;;;;;25.43;4.10;;;7.90;99.90;;;;;;6214951;23;20035;-86
2022/01/18 00:37:55;;;;;;;22.77;4.63;;;7.90;99.90;;;;;;6213122;23;20009;-87
2022/01/18 00:40:21;;;;;;;31.33;4.63;;;7.90;99.90;;;;;;6213475;23;20004;-87
2022/01/18 00:42:47;;;;;;;23.83;3.97;;;7.90;99.90;;;;;;6213109;23;20382;-86
2022/01/18 00:45:12;;;;;;;24.20;3.43;;;7.90;99.90;;;;;;6213787;23;20011;-87
2022/01/18 00:47:38;;;;;;;23.33;3.70;;;7.90;99.90;;;;;;6213065;23;20347;-87
2022/01/18 00:50:05;;;;;;;18.03;3.60;;;7.90;99.90;;;;;;6238536;23;20019;-87
2022/01/18 00:52:36;;;;;;;22.53;3.80;;;7.90;99.90;;;;;;6188125;23;20016;-86
2022/01/18 00:55:03;;;;;;;20.73;3.50;;;7.80;99.90;;;;;;6188325;23;20347;-87
2022/01/18 00:57:29;;;;;;;20.13;3.50;;;7.80;99.90;;;;;;6238231;23;20016;-87
2022/01/18 00:59:54;;;;;;;18.07;3.03;;;7.80;99.90;;;;;;6213248;23;20027;-87
2022/01/18 01:02:21;;;;;;;22.83;3.50;;;7.80;99.90;;;;;;6213045;23;20084;-86
2022/01/18 01:04:48;;;;;;;23.33;3.67;;;7.90;99.90;;;;;;6238294;23;20339;-86
2022/01/18 01:07:20;;;;;;;22.10;4.33;;;7.90;99.90;;;;;;6212896;23;20423;-86
2022/01/18 01:09:46;;;;;;;21.53;3.53;;;7.80;99.90;;;;;;6212814;23;20462;-85
2022/01/18 01:12:14;;;;;;;17.77;3.77;;;7.90;99.90;;;;;;6212991;23;20004;-87
2022/01/18 01:14:41;;;;;;;20.07;3.57;;;7.80;99.90;;;;;;6212953;23;20012;-86
2022/01/18 01:17:23;;;;;;;18.93;3.57;;;7.80;99.90;;;;;;6213203;23;20004;-86
2022/01/18 01:36:32;;;;;;;19.43;3.50;;;7.80;99.90;;;;;;6238352;23;20013;-86
2022/01/18 01:42:04;;;;;;;19.50;3.50;;;7.90;99.90;;;;;;6212760;23;20322;-87
2022/01/18 01:44:42;;;;;;;30.43;4.37;;;7.90;99.90;;;;;;6213050;23;20084;-87
2022/01/18 01:47:10;;;;;;;23.80;4.50;;;7.90;99.90;;;;;;6214796;23;20009;-87
2022/01/18 01:49:37;;;;;;;25.37;4.17;;;7.90;99.90;;;;;;6214301;23;20008;-87
2022/01/18 01:52:08;;;;;;;19.30;3.40;;;7.90;99.90;;;;;;6214823;23;20080;-87
2022/01/18 01:54:34;;;;;;;25.50;3.87;;;7.80;99.90;;;;;;6190165;23;20009;-87
2022/01/18 01:56:59;;;;;;;24.90;3.40;;;7.90;99.90;;;;;;6214723;23;20446;-86
2022/01/18 01:59:25;;;;;;;27.63;3.70;;;7.80;99.90;;;;;;6214315;23;20476;-86
2022/01/18 02:02:01;;;;;;;27.57;4.53;;;8.00;99.90;;;;;;6216122;23;20075;-87
2022/01/18 02:04:27;;;;;;;26.80;4.67;;;7.90;99.90;;;;;;6214887;23;20320;-87
2022/01/18 02:06:52;;;;;;;30.53;3.83;;;7.90;99.90;;;;;;6214632;23;20039;-86
2022/01/18 02:09:18;;;;;;;28.57;5.00;;;7.90;99.90;;;;;;6214830;23;20011;-88
2022/01/18 02:11:46;;;;;;;27.60;4.23;;;7.90;99.90;;;;;;6214534;23;20410;-86
2022/01/18 02:14:17;;;;;;;29.83;4.03;;;7.90;99.90;;;;;;6215245;23;20013;-87
2022/01/18 02:22:12;;;;;;;25.47;4.50;;;8.00;99.90;;;;;;6214924;23;20012;-86
2022/01/18 02:24:38;;;;;;;30.57;4.20;;;7.90;99.90;;;;;;6189719;23;20091;-86
2022/01/18 02:27:04;;;;;;;25.67;4.37;;;7.90;99.90;;;;;;6214604;23;20019;-87
2022/01/18 02:29:30;;;;;;;26.53;4.00;;;7.90;99.90;;;;;;6214468;23;20008;-87
2022/01/18 02:31:56;;;;;;;24.10;3.20;;;7.80;99.90;;;;;;6189225;23;20008;-87
2022/01/18 02:34:23;;;;;;;22.23;3.73;;;7.80;99.90;;;;;;6214564;23;20036;-86
2022/01/18 02:36:50;;;;;;;23.43;3.67;;;7.90;99.90;;;;;;6189501;23;20013;-87
2022/01/18 02:39:22;;;;;;;27.50;3.67;;;7.80;99.90;;;;;;6164467;23;20012;-87
2022/01/18 02:41:58;;;;;;;26.50;4.07;;;7.80;99.90;;;;;;6189182;23;20047;-85
2022/01/18 02:44:26;;;;;;;23.77;4.43;;;7.80;99.90;;;;;;6189434;23;20001;-85
2022/01/18 02:46:52;;;;;;;24.33;3.90;;;7.80;99.90;;;;;;6189419;23;20012;-87
2022/01/18 02:49:18;;;;;;;25.77;3.93;;;7.80;99.90;;;;;;6189084;23;20087;-86
2022/01/18 02:51:44;;;;;;;18.90;3.50;;;7.70;99.90;;;;;;6189142;23;20012;-87
2022/01/18 02:54:13;;;;;;;18.40;4.13;;;7.70;99.90;;;;;;6189316;23;20009;-87
2022/01/18 02:56:49;;;;;;;17.77;3.42;;;7.80;99.90;;;;;;6188869;23;20016;-86
2022/01/18 02:59:42;;;;;;;22.63;3.83;;;7.80;99.90;;;;;;6189067;23;20015;-86
2022/01/18 03:05:07;;;;;;;22.70;3.47;;;7.80;99.90;;;;;;6215920;23;20009;-86
2022/01/18 03:07:34;;;;;;;22.33;3.77;;;7.80;99.90;;;;;;6188901;23;20008;-86
2022/01/18 03:09:59;;;;;;;24.57;4.03;;;7.70;99.90;;;;;;6189193;23;20011;-86
2022/01/18 03:12:25;;;;;;;18.37;2.93;;;7.70;99.90;;;;;;6164344;23;20104;-86
2022/01/18 03:14:51;;;;;;;27.40;4.70;;;7.70;99.90;;;;;;6216062;23;20390;-87
2022/01/18 03:17:17;;;;;;;15.93;3.57;;;7.80;99.90;;;;;;6164454;23;20151;-87
2022/01/18 03:19:43;;;;;;;18.73;3.10;;;7.80;99.90;;;;;;6164678;23;20131;-86
2022/01/18 03:22:09;;;;;;;17.73;3.00;;;7.80;99.90;;;;;;6189291;23;20008;-86
2022/01/18 03:30:05;;;;;;;16.63;3.60;;;7.70;99.90;;;;;;6213971;23;20016;-86
2022/01/18 03:32:31;;;;;;;15.25;3.47;;;7.70;99.90;;;;;;6193111;23;20087;-86
2022/01/18 03:34:57;;;;;;;20.70;2.90;;;7.70;99.90;;;;;;6214036;23;20036;-86
2022/01/18 03:37:23;;;;;;;15.27;3.27;;;7.70;99.90;;;;;;6239173;23;20008;-86
2022/01/18 03:39:48;;;;;;;13.53;2.77;;;7.70;99.90;;;;;;6188692;23;20007;-86
2022/01/18 03:45:03;;;;;;;15.47;3.10;;;7.70;99.90;;;;;;6239334;23;20436;-86
2022/01/18 03:47:30;;;;;;;21.73;3.63;;;7.70;99.90;;;;;;6214068;23;20004;-87
2022/01/18 03:49:56;;;;;;;21.30;4.10;;;7.70;99.90;;;;;;6214088;23;20070;-86
2022/01/18 03:52:22;;;;;;;25.43;4.37;;;7.70;99.90;;;;;;6239597;23;20379;-86
2022/01/18 03:54:50;;;;;;;22.20;4.17;;;7.70;99.90;;;;;;6214038;23;20019;-86
2022/01/18 03:57:16;;;;;;;22.23;4.17;;;7.80;99.90;;;;;;6239352;23;20012;-86
2022/01/18 03:59:43;;;;;;;30.83;4.97;;;7.80;99.90;;;;;;6188970;23;20083;-87
2022/01/18 04:02:09;;;;;;;23.23;3.90;;;7.70;99.90;;;;;;6238966;23;20035;-87
2022/01/18 04:04:36;;;;;;;27.03;5.30;;;7.70;99.90;;;;;;6214589;23;20004;-87
2022/01/18 04:07:02;;;;;;;26.50;4.70;;;7.80;99.90;;;;;;6214691;23;20419;-86
2022/01/18 04:09:28;;;;;;;30.97;4.87;;;7.70;99.90;;;;;;6215687;23;20005;-86
2022/01/18 04:11:54;;;;;;;24.00;4.00;;;7.70;99.90;;;;;;6214047;23;20155;-86
2022/01/18 04:14:20;;;;;;;26.77;6.07;;;7.80;99.90;;;;;;6214033;23;20114;-87
2022/01/18 04:27:36;;;;;;;22.23;2.93;;;7.70;99.90;;;;;;6214201;23;20012;-86
2022/01/18 04:30:04;;;;;;;25.17;3.20;;;7.70;99.90;;;;;;6214181;23;20321;-86
2022/01/18 04:32:29;;;;;;;20.07;3.60;;;7.70;99.90;;;;;;6210401;22;20000;-85
2022/01/18 04:34:55;;;;;;;19.97;4.00;;;7.70;99.90;;;;;;6188792;23;20001;-85
2022/01/18 04:37:21;;;;;;;25.67;4.57;;;7.70;99.90;;;;;;6188259;23;20016;-87
2022/01/18 04:39:48;;;;;;;25.90;4.37;;;7.70;99.90;;;;;;6187769;23;20080;-86
2022/01/18 04:43:03;;;;;;;20.17;4.00;;;7.60;99.90;;;;;;6198460;23;20016;-87
2022/01/18 04:48:29;;;;;;;22.90;5.40;;;7.60;99.90;;;;;;6129289;23;20040;-84
2022/01/18 04:50:57;;;;;;;21.50;3.90;;;7.60;99.90;;;;;;6108959;23;20421;-86
2022/01/18 04:53:25;;;;;;;22.23;4.57;;;7.60;99.90;;;;;;6158589;23;20444;-86
2022/01/18 04:55:54;;;;;;;21.63;4.17;;;7.60;99.90;;;;;;6133890;23;20256;-86
2022/01/18 04:58:21;;;;;;;;;;;7.60;99.90;;;;;;6136522;23;20009;-86
2022/01/18 05:00:48;;;;;;;22.47;3.53;;;7.60;99.90;;;;;;6135416;23;19915;-84
2022/01/18 05:03:14;;;;;;;18.83;3.60;;;7.60;99.90;;;;;;6137624;23;20088;-86
2022/01/18 05:05:39;;;;;;;27.60;4.27;;;7.60;99.90;;;;;;6131715;23;20002;-86
2022/01/18 05:08:13;;;;;;;27.03;4.50;;;7.70;99.90;;;;;;6146819;23;20009;-85
2022/01/18 05:10:39;;;;;;;26.30;4.07;;;7.90;99.90;;;;;;6095392;23;20096;-85
2022/01/18 05:13:16;;;;;;;23.33;4.30;;;7.90;99.90;;;;;;6151697;23;20017;-85
2022/01/18 05:15:49;;;;;;;20.37;3.63;;;7.90;99.90;;;;;;6152609;23;20013;-84
2022/01/18 05:23:34;;;;;;;20.67;3.83;;;7.90;99.90;;;;;;6171440;23;20013;-84
2022/01/18 05:26:00;;;;;;;19.50;4.30;;;7.90;99.90;;;;;;6132722;23;20459;-84
2022/01/18 05:28:26;;;;;;;22.53;4.63;;;8.00;99.90;;;;;;6109339;23;20044;-85
2022/01/18 05:30:52;;;;;;;22.03;4.30;;;7.90;99.90;;;;;;6156501;23;20013;-84
2022/01/18 05:33:21;;;;;;;26.37;4.63;;;7.80;99.90;;;;;;6130844;23;20009;-84
2022/01/18 05:35:48;;;;;;;21.65;4.20;;;7.80;99.90;;;;;;6131184;23;20020;-85
2022/01/18 05:38:14;;;;;;;22.00;4.03;;;7.90;99.90;;;;;;6132053;23;20010;-84
2022/01/18 05:40:43;;;;;;;31.67;7.30;;;7.80;99.90;;;;;;6156983;23;20006;-84
2022/01/18 05:43:09;;;;;;;26.35;5.30;;;7.80;99.90;;;;;;6132006;23;20009;-85
2022/01/18 05:45:35;;;;;;;25.03;5.33;;;7.80;99.90;;;;;;6131046;23;20010;-84
2022/01/18 05:48:01;;;;;;;28.83;5.67;;;7.70;99.90;;;;;;6131350;23;20010;-84
2022/01/18 05:50:26;;;;;;;26.07;4.73;;;7.70;99.90;;;;;;6155486;23;20013;-84
2022/01/18 05:52:52;;;;;;;21.77;4.97;;;7.70;99.90;;;;;;6130848;23;20086;-84
2022/01/18 05:55:18;;;;;;;30.27;5.40;;;7.60;99.90;;;;;;6129450;23;20016;-84
2022/01/18 05:57:44;;;;;;;21.73;4.67;;;7.60;99.90;;;;;;6129317;23;20456;-85
2022/01/18 06:00:19;;;;;;;27.90;6.23;;;7.60;99.90;;;;;;6129321;23;20403;-85
2022/01/18 06:03:00;;;;;;;18.97;4.93;;;7.70;99.90;;;;;;6133494;23;20441;-87
2022/01/18 06:08:12;;;;;;;24.37;5.80;;;7.60;99.90;;;;;;6138577;23;20010;-85
2022/01/18 06:10:39;;;;;;;29.07;5.47;;;7.60;99.90;;;;;;6141674;23;20032;-83
2022/01/18 06:13:08;;;;;;;26.70;5.60;;;7.60;99.90;;;;;;6136625;23;20087;-84
2022/01/18 06:15:34;;;;;;;25.77;5.70;;;7.60;99.90;;;;;;6137042;23;20077;-84
2022/01/18 06:18:00;;;;;;;26.70;5.70;;;7.60;99.90;;;;;;6135707;23;20044;-85
2022/01/18 06:20:26;;;;;;;24.53;5.77;;;7.50;99.90;;;;;;6132289;23;20010;-85
2022/01/18 06:22:52;;;;;;;22.83;5.80;;;7.60;99.90;;;;;;6161129;23;20005;-85
2022/01/18 06:25:19;;;;;;;24.93;5.83;;;7.60;99.90;;;;;;6140659;23;20065;-85
2022/01/18 06:27:46;;;;;;;28.27;6.40;;;7.60;99.90;;;;;;6141874;23;20061;-85
2022/01/18 06:30:12;;;;;;;21.50;5.90;;;7.60;99.90;;;;;;6118239;23;20089;-85
2022/01/18 06:32:39;;;;;;;23.03;6.63;;;7.60;99.90;;;;;;6138010;23;20021;-87
2022/01/18 06:35:07;;;;;;;23.63;6.73;;;7.60;99.90;;;;;;6138149;23;20025;-85
2022/01/18 06:37:34;;;;;;;27.07;7.23;;;7.60;99.90;;;;;;6109160;23;20404;-85
2022/01/18 06:40:01;;;;;;;24.10;6.93;;;7.60;99.90;;;;;;6135840;23;20021;-84
2022/01/18 06:42:27;;;;;;;28.00;7.07;;;7.60;99.90;;;;;;6139320;23;20020;-84
2022/01/18 06:44:53;;;;;;;29.23;8.87;;;7.60;99.90;;;;;;6139940;23;20028;-84
2022/01/18 06:47:19;;;;;;;33.30;8.07;;;7.60;99.90;;;;;;6140343;23;20092;-84
2022/01/18 06:49:45;;;;;;;24.57;6.70;;;7.60;99.90;;;;;;6141100;23;20360;-84
2022/01/18 06:52:11;;;;;;;27.90;7.13;;;7.70;99.90;;;;;;6141072;23;20013;-84
2022/01/18 06:54:37;;;;;;;29.43;6.83;;;7.70;99.90;;;;;;6141536;23;20072;-84
2022/01/18 06:57:03;;;;;;;22.80;6.97;;;7.70;99.90;;;;;;6142209;23;20005;-84
2022/01/18 06:59:29;;;;;;;25.30;6.93;;;7.70;99.90;;;;;;6141673;23;20032;-84
2022/01/18 07:01:55;;;;;;;23.17;7.53;;;7.70;99.90;;;;;;6169343;23;20005;-84
2022/01/18 07:04:21;;;;;;;27.27;8.03;;;7.60;99.90;;;;;;6141649;23;20002;-84
2022/01/18 07:06:46;;;;;;;25.90;8.10;;;7.60;99.90;;;;;;6142293;23;20040;-84
2022/01/18 07:09:15;;;;;;;25.70;7.63;;;7.60;99.90;;;;;;6141419;23;20317;-84
2022/01/18 07:11:42;;;;;;;26.10;7.90;;;7.60;99.90;;;;;;6142838;23;20009;-84
2022/01/18 07:14:08;;;;;;;33.20;9.07;;;7.60;99.90;;;;;;6142150;23;20093;-84
2022/01/18 07:16:34;;;;;;;33.00;9.33;;;7.60;99.90;;;;;;6163544;23;20097;-84
2022/01/18 07:19:00;;;;;;;25.83;9.07;;;7.60;99.90;;;;;;6111632;23;20006;-85
2022/01/18 07:21:25;;;;;;;28.73;8.90;;;7.50;99.90;;;;;;6154729;23;20005;-84
2022/01/18 07:24:02;;;;;;;29.83;9.13;;;7.60;99.90;;;;;;6128744;23;20286;-85
2022/01/18 07:26:28;;;;;;;33.07;9.00;;;7.50;99.90;;;;;;6128713;23;20355;-84
2022/01/18 07:28:59;;;;;;;27.57;8.70;;;7.40;99.90;;;;;;6131325;23;20005;-83
2022/01/18 07:31:25;;;;;;;29.80;9.27;;;7.40;99.90;;;;;;6109504;23;20017;-84
2022/01/18 07:33:51;;;;;;;35.07;9.67;;;7.50;99.90;;;;;;6135482;23;20017;-86
2022/01/18 07:36:16;;;;;;;38.23;10.37;;;7.50;99.90;;;;;;6136543;23;20088;-85
2022/01/18 07:38:42;;;;;;;34.87;9.23;;;7.50;99.90;;;;;;6135753;23;20036;-84
2022/01/18 07:41:08;;;;;;;34.00;9.57;;;7.50;99.90;;;;;;6133307;23;20032;-86
2022/01/18 07:43:37;;;;;;;30.47;9.50;;;7.50;99.90;;;;;;6131659;23;20340;-89
2022/01/18 07:46:03;;;;;;;31.25;10.45;;;7.60;99.90;;;;;;6129644;23;20010;-86
2022/01/18 07:48:29;;;;;;;36.03;10.33;;;7.60;99.90;;;;;;6133241;23;20551;-86
2022/01/18 07:50:54;;;;;;;34.53;11.43;;;7.60;99.90;;;;;;6130736;23;20012;-85
2022/01/18 07:53:20;;;;;;;32.60;10.73;;;7.60;99.90;;;;;;6129323;23;20013;-83
2022/01/18 07:55:47;;;;;;;31.83;10.73;;;7.70;99.90;;;;;;6130581;23;20329;-87
2022/01/18 07:58:13;;;;;;;41.00;12.97;;;7.80;99.90;;;;;;6128143;23;20048;-86
2022/01/18 08:00:39;;;;;;;31.90;11.60;;;7.70;99.90;;;;;;6129588;23;20088;-83
2022/01/18 08:03:05;;;;;;;33.63;11.03;;;7.80;99.90;;;;;;6130449;23;20010;-86
2022/01/18 08:05:31;;;;;;;33.00;11.27;;;7.80;99.90;;;;;;6136176;23;20010;-87
2022/01/18 08:07:57;;;;;;;33.30;11.27;;;7.80;99.90;;;;;;6136774;23;20017;-81
2022/01/18 08:10:30;;;;;;;37.63;11.43;;;7.70;99.90;;;;;;6157865;23;20006;-80
2022/01/18 08:12:57;;;;;;;36.47;10.00;;;7.70;99.90;;;;;;6154033;23;20552;-80
2022/01/18 08:15:23;;;;;;;35.43;11.10;;;7.80;99.90;;;;;;6154183;23;20104;-80
2022/01/18 08:17:51;;;;;;;32.03;9.97;;;7.80;99.90;;;;;;6153537;23;20013;-80
2022/01/18 08:20:18;;;;;;;34.73;9.43;;;7.80;99.90;;;;;;6153081;23;20009;-80
2022/01/18 08:22:44;;;;;;;31.87;9.33;;;7.90;99.90;;;;;;6154425;23;20092;-80
2022/01/18 08:25:12;;;;;;;29.77;9.40;;;7.90;99.90;;;;;;6154451;23;20036;-80
2022/01/18 08:27:38;;;;;;;28.80;9.57;;;8.00;99.90;;;;;;6154158;23;20418;-82
2022/01/18 08:30:08;;;;;;;31.50;10.80;;;8.00;99.90;;;;;;6137434;23;20020;-86
2022/01/18 08:32:38;;;;;;;32.67;11.10;;;8.00;99.90;;;;;;6146270;23;20105;-86
2022/01/18 08:35:06;;;;;;;34.67;14.53;;;7.90;99.90;;;;;;6093138;23;20013;-85
2022/01/18 08:37:31;;;;;;;39.43;16.03;;;7.90;99.90;;;;;;6126559;23;20028;-79
2022/01/18 08:39:57;;;;;;;42.40;15.30;;;7.90;99.90;;;;;;6153531;23;20021;-86
2022/01/18 08:42:24;;;;;;;42.57;15.00;;;7.90;99.90;;;;;;6127815;23;20002;-87
2022/01/18 08:44:50;;;;;;;41.43;15.13;;;7.80;99.90;;;;;;6127702;23;20507;-81
2022/01/18 08:47:18;;;;;;;39.70;14.57;;;7.80;99.90;;;;;;6152962;23;20120;-86
2022/01/18 08:49:44;;;;;;;42.17;14.53;;;7.80;99.90;;;;;;6106133;23;20089;-82
2022/01/18 08:52:11;;;;;;;45.53;15.20;;;7.90;99.90;;;;;;6160039;23;20002;-83
2022/01/18 08:54:38;;;;;;;35.80;14.07;;;7.90;99.90;;;;;;6107521;23;20032;-81
2022/01/18 08:57:04;;;;;;;40.40;13.07;;;7.90;99.90;;;;;;6127418;23;20017;-81
2022/01/18 08:59:30;;;;;;;43.87;14.17;;;7.90;99.90;;;;;;6124874;23;20012;-81
2022/01/18 09:01:58;;;;;;;46.87;14.67;;;7.90;99.90;;;;;;6153394;23;20375;-80
2022/01/18 09:04:24;;;;;;;44.23;16.30;;;8.00;99.90;;;;;;6153496;23;20013;-80
2022/01/18 09:06:52;;;;;;;47.27;15.63;;;8.00;99.90;;;;;;6155999;23;20290;-82
2022/01/18 09:09:19;;;;;;;48.03;16.37;;;8.00;99.90;;;;;;6134911;23;20023;-82
2022/01/18 09:11:45;;;;;;;39.70;12.83;;;8.00;99.90;;;;;;6134239;23;20013;-87
2022/01/18 09:14:13;;;;;;;41.10;12.50;;;8.10;99.90;;;;;;6106523;23;20010;-85
2022/01/18 09:16:38;;;;;;;34.33;12.40;;;8.20;99.90;;;;;;6103737;23;20014;-84
2022/01/18 09:19:04;;;;;;;37.47;12.67;;;8.10;99.90;;;;;;6127618;23;20413;-83
2022/01/18 09:21:32;;;;;;;36.80;11.13;;;8.10;99.90;;;;;;6126795;23;20005;-83
2022/01/18 09:23:58;;;;;;;40.87;12.07;;;8.00;99.90;;;;;;6152910;23;20010;-84
2022/01/18 09:26:24;;;;;;;31.77;11.07;;;8.00;99.90;;;;;;6126963;23;20016;-84
2022/01/18 09:28:50;;;;;;;42.30;12.70;;;8.00;99.90;;;;;;6126612;23;20384;-84
2022/01/18 09:31:17;;;;;;;39.50;12.00;;;8.00;99.90;;;;;;6127777;23;20089;-83
2022/01/18 09:33:42;;;;;;;37.27;11.40;;;8.00;99.90;;;;;;6127359;23;20389;-84
2022/01/18 09:36:09;;;;;;;40.77;11.77;;;8.00;99.90;;;;;;6127863;23;20005;-84
2022/01/18 09:38:34;;;;;;;34.83;12.07;;;8.00;99.90;;;;;;6102585;23;20044;-83
2022/01/18 09:41:08;;;;;;;34.47;11.33;;;8.10;99.90;;;;;;6128781;23;20310;-84
2022/01/18 09:43:35;;;;;;;41.10;12.57;;;8.00;99.90;;;;;;6129996;23;20137;-84
2022/01/18 09:46:00;;;;;;;38.17;13.83;;;8.10;99.90;;;;;;6128484;23;20006;-85
2022/01/18 09:48:26;;;;;;;34.10;13.13;;;8.10;99.90;;;;;;6126431;23;20314;-84
2022/01/18 09:50:52;;;;;;;33.93;13.80;;;8.10;99.90;;;;;;6126451;23;20041;-84
2022/01/18 09:53:18;;;;;;;45.83;13.70;;;8.10;99.90;;;;;;6126979;23;20005;-84
2022/01/18 09:55:44;;;;;;;39.03;13.60;;;8.10;99.90;;;;;;6126842;23;20049;-84
2022/01/18 09:58:11;;;;;;;37.40;12.00;;;8.10;99.90;;;;;;6126344;23;20382;-84
2022/01/18 10:00:40;;;;;;;32.87;12.07;;;8.10;99.90;;;;;;6126517;23;20081;-83
2022/01/18 10:03:11;;;;;;;33.47;10.63;;;8.10;99.90;;;;;;6126260;23;20006;-84
2022/01/18 10:05:38;;;;;;;40.33;11.17;;;8.10;99.90;;;;;;6126795;23;20435;-84
2022/01/18 10:08:14;;;;;;;31.03;12.33;;;8.20;99.90;;;;;;6127756;23;20016;-84
2022/01/18 10:11:02;;;;;;;33.20;13.43;;;8.20;99.90;;;;;;6128842;23;20088;-84
2022/01/18 10:13:30;;;;;;;45.00;13.33;;;8.20;99.90;;;;;;6104339;23;20028;-85
2022/01/18 10:15:57;;;;;;;37.80;13.60;;;8.20;99.90;;;;;;6153056;23;20025;-84
2022/01/18 10:18:46;;;;;;;37.60;14.17;;;8.30;99.90;;;;;;6154950;23;20017;-85
2022/01/18 10:21:30;;;;;;;42.05;13.65;;;8.30;99.90;;;;;;6154578;23;20258;-84
2022/01/18 10:24:20;;;;;;;42.77;15.93;;;8.20;99.90;;;;;;6128521;23;20001;-84
2022/01/18 10:26:49;;;;;;;46.23;17.37;;;8.30;99.90;;;;;;6104075;23;20010;-84
2022/01/18 10:29:16;;;;;;;44.50;18.23;;;8.30;99.90;;;;;;6127550;23;20016;-84
2022/01/18 10:32:37;;;;;;;52.47;18.43;;;8.20;99.90;;;;;;6128643;23;20087;-85
2022/01/18 10:37:11;;;;;;;54.13;21.40;;;8.30;99.90;;;;;;6128379;23;20016;-84
2022/01/18 10:39:40;;;;;;;46.80;17.80;;;8.30;99.90;;;;;;6103155;23;20025;-84
2022/01/18 10:42:14;;;;;;;44.60;17.25;;;8.30;99.90;;;;;;6128861;23;20002;-84
2022/01/18 10:44:41;;;;;;;44.63;16.23;;;8.30;99.90;;;;;;6128388;23;20009;-85
2022/01/18 10:47:07;;;;;;;41.30;18.20;;;8.40;99.90;;;;;;6128384;23;20065;-85
2022/01/18 10:49:46;;;;;;;49.80;20.77;;;8.40;99.90;;;;;;6128302;23;20014;-82
2022/01/18 10:52:20;;;;;;;50.37;19.47;;;8.40;99.90;;;;;;6133119;23;20084;-85
2022/01/18 10:54:49;;;;;;;53.20;20.90;;;8.40;99.90;;;;;;6158211;23;20014;-84
2022/01/18 10:57:30;;;;;;;56.55;22.08;;;8.50;99.90;;;;;;6131278;23;20068;-82
2022/01/18 11:00:08;;;;;;;55.20;22.63;;;8.50;99.90;;;;;;6156807;23;20368;-83
2022/01/18 11:02:39;;;;;;;58.60;23.93;;;8.50;99.90;;;;;;6129824;23;20085;-82
2022/01/18 11:05:16;;;;;;;56.77;24.80;;;8.60;99.90;;;;;;6130832;23;20006;-82
2022/01/18 11:07:44;;;;;;;59.77;25.97;;;8.60;99.90;;;;;;6130074;23;20010;-82
2022/01/18 11:10:12;;;;;;;67.77;30.10;;;8.60;99.90;;;;;;6129556;23;20009;-83
2022/01/18 11:12:56;;;;;;;64.40;29.53;;;8.70;99.90;;;;;;6129951;23;20013;-85
2022/01/18 11:15:24;;;;;;;65.27;27.53;;;8.70;99.90;;;;;;6129963;23;20096;-85
2022/01/18 11:17:58;;;;;;;63.53;26.90;;;8.70;99.90;;;;;;6129977;23;20005;-85
2022/01/18 11:20:28;;;;;;;67.17;26.40;;;8.70;99.90;;;;;;6132283;23;20425;-86
2022/01/18 11:22:55;;;;;;;60.93;26.37;;;8.70;99.90;;;;;;6159754;23;20032;-85
2022/01/18 11:25:22;;;;;;;60.13;26.33;;;8.70;99.90;;;;;;6134192;23;20111;-86
2022/01/18 11:27:51;;;;;;;58.33;24.20;;;8.80;99.90;;;;;;6133706;23;20017;-86
2022/01/18 11:30:19;;;;;;;56.78;23.50;;;8.80;99.90;;;;;;6133372;23;20612;-81
2022/01/18 11:32:45;;;;;;;50.30;21.47;;;8.80;99.90;;;;;;6159488;23;20009;-86
2022/01/18 11:35:14;;;;;;;55.23;21.70;;;8.70;99.90;;;;;;6155772;23;20032;-85
2022/01/18 11:37:49;;;;;;;46.70;16.77;;;8.70;99.90;;;;;;6158015;23;20005;-83
2022/01/18 11:40:17;;;;;;;40.47;16.23;;;8.70;99.90;;;;;;6144182;23;20601;-84
2022/01/18 11:42:50;;;;;;;45.10;16.93;;;8.70;99.90;;;;;;6141165;23;20005;-85
2022/01/18 11:45:25;;;;;;;37.20;11.57;;;8.60;99.90;;;;;;6103863;23;20277;-84
2022/01/18 11:48:11;;;;;;;31.90;9.60;;;8.70;99.90;;;;;;6127125;23;20014;-84
2022/01/18 11:50:41;;;;;;;22.87;7.67;;;8.80;99.90;;;;;;6128186;23;20010;-84
2022/01/18 11:53:26;;;;;;;24.70;7.47;;;8.80;99.90;;;;;;6127711;23;20013;-85
2022/01/18 11:56:02;;;;;;;24.93;7.40;;;8.80;99.90;;;;;;6152526;23;20016;-84
2022/01/18 11:58:28;;;;;;;26.57;6.83;;;8.80;99.90;;;;;;6153554;23;20092;-85
2022/01/18 12:01:00;;;;;;;31.87;8.47;;;8.80;99.90;;;;;;6130850;23;20404;-85
2022/01/18 12:03:28;;;;;;;28.83;7.63;;;8.80;99.90;;;;;;6136346;23;20009;-85
2022/01/18 12:05:59;;;;;;;35.30;9.47;;;8.70;99.90;;;;;;6112209;23;20420;-85
2022/01/18 12:08:38;;;;;;;27.70;9.70;;;8.70;99.90;;;;;;6135721;23;20055;-85
2022/01/18 12:11:26;;;;;;;29.73;9.80;;;8.70;99.90;;;;;;6134013;23;20009;-84
2022/01/18 12:13:57;;;;;;;32.67;10.10;;;8.70;99.90;;;;;;6129609;23;20005;-85
2022/01/18 12:16:29;;;;;;;31.67;12.30;;;8.70;99.90;;;;;;6128663;23;20010;-85
2022/01/18 12:19:04;;;;;;;31.60;11.10;;;8.80;99.90;;;;;;6127327;23;20433;-85
2022/01/18 12:21:32;;;;;;;31.70;10.63;;;8.80;99.90;;;;;;6128675;23;20016;-85
2022/01/18 12:24:19;;;;;;;30.13;10.67;;;8.80;99.90;;;;;;6129356;23;20005;-85
2022/01/18 12:26:49;;;;;;;33.50;11.50;;;8.80;99.90;;;;;;6128828;23;20001;-85
2022/01/18 12:32:17;;;;;;;33.03;13.00;;;8.80;99.90;;;;;;6127213;23;20037;-84
2022/01/18 12:34:45;;;;;;;33.87;11.63;;;8.90;99.90;;;;;;6127972;23;20179;-85
2022/01/18 12:37:11;;;;;;;38.43;13.63;;;8.90;99.90;;;;;;6128393;23;20036;-84
2022/01/18 12:39:49;;;;;;;38.07;14.20;;;8.90;99.90;;;;;;6102821;23;20131;-85
2022/01/18 12:42:23;;;;;;;30.03;10.83;;;9.00;99.90;;;;;;6128773;23;20098;-85
2022/01/18 12:44:49;;;;;;;31.90;12.30;;;9.00;99.90;;;;;;6103281;23;20036;-84
2022/01/18 12:47:15;;;;;;;35.20;13.30;;;9.00;99.90;;;;;;6127696;23;20017;-84
2022/01/18 12:49:42;;;;;;;40.90;15.17;;;9.00;99.90;;;;;;6127323;23;20337;-85
2022/01/18 12:52:08;;;;;;;36.27;14.80;;;8.90;99.90;;;;;;6127148;23;20017;-84
2022/01/18 12:54:36;;;;;;;44.10;17.73;;;9.00;99.90;;;;;;6127468;23;20088;-84
2022/01/18 12:57:22;;;;;;;38.40;16.37;;;9.00;99.90;;;;;;6128023;23;20006;-85
2022/01/18 13:00:06;;;;;;;40.57;16.17;;;9.00;99.90;;;;;;6127072;23;20092;-84
2022/01/18 13:02:32;;;;;;;38.10;14.83;;;9.00;99.90;;;;;;6127698;23;20010;-85
2022/01/18 13:05:04;;;;;;;41.20;16.00;;;9.00;99.90;;;;;;6128026;23;20002;-85
2022/01/18 13:07:31;;;;;;;41.80;15.67;;;9.00;99.90;;;;;;6127992;23;20342;-86
2022/01/18 13:10:02;;;;;;;42.07;17.63;;;9.00;99.90;;;;;;6103744;23;20001;-85
2022/01/18 13:12:33;;;;;;;51.97;18.33;;;9.00;99.90;;;;;;6129043;23;20010;-85
2022/01/18 13:15:02;;;;;;;46.97;19.90;;;9.00;99.90;;;;;;6129318;23;20010;-86
2022/01/18 13:23:50;;;;;;;47.17;17.83;;;8.90;99.90;;;;;;6118059;23;20041;-86
2022/01/18 13:26:26;;;;;;;40.00;17.60;;;8.80;99.90;;;;;;6135525;23;20037;-84
2022/01/18 13:28:51;;;;;;;46.57;17.13;;;8.90;99.90;;;;;;6135423;23;20332;-82
2022/01/18 13:31:23;;;;;;;40.90;16.17;;;9.00;99.90;;;;;;6138458;23;20020;-84
2022/01/18 13:33:58;;;;;;;41.50;16.10;;;9.00;99.90;;;;;;6134513;23;20278;-84
2022/01/18 13:36:25;;;;;;;37.23;16.07;;;9.10;99.90;;;;;;6134540;23;20017;-86
2022/01/18 13:38:51;;;;;;;33.10;14.57;;;9.10;99.90;;;;;;6160748;23;20005;-85
2022/01/18 13:41:17;;;;;;;33.03;14.30;;;9.10;99.90;;;;;;6163839;23;20014;-85
2022/01/18 13:43:44;;;;;;;30.00;13.17;;;9.00;99.90;;;;;;6139541;23;20009;-85
2022/01/18 13:46:10;;;;;;;38.00;14.40;;;9.00;99.90;;;;;;6138524;23;20005;-85
2022/01/18 13:48:37;;;;;;;35.17;13.17;;;9.00;99.90;;;;;;6138686;23;20080;-86
2022/01/18 13:51:15;;;;;;;33.67;14.33;;;9.00;99.90;;;;;;6139441;23;20133;-86
2022/01/18 13:53:41;;;;;;;29.87;13.17;;;9.00;99.90;;;;;;6115178;23;20020;-86
2022/01/18 13:56:15;;;;;;;32.13;13.53;;;8.80;99.90;;;;;;6116508;23;20333;-87
2022/01/18 13:58:44;;;;;;;28.93;11.80;;;8.80;99.90;;;;;;6140336;23;20069;-85
2022/01/18 14:01:17;;;;;;;34.20;12.93;;;8.90;99.90;;;;;;6144505;23;20008;-85
2022/01/18 14:03:45;;;;;;;32.57;12.00;;;8.90;99.90;;;;;;6116562;23;20013;-86